Aérodrome :
LOGIN :

S'inscrire | Disclaimer

   EN    FR    IT 

 










Légende :    VFR   VFR Marginal   IFR   IFR Intensif   IFR Très Intensif
Visi : 
Plafond : 
>= 8 km
>= 3000ft
5 à 8 km
1000 à 3000 ft
1500m à 5 km
500 à 1000 ft
800 à 1500m
200 à 500 ft
< 800m
< 200 ft
Symboles :   Orages  Brouillard  Fortes neiges  Fortes précipitations  Vent > 20 kt
SIGMETs :   Divers  Orages  Givrage  Turbulence  Onde Orograph.  Cendres Volcan.







- Altitude de l'aérodrome : 47 ft
- Code IATA : BDS


LIBR - Casale Arpt. Brindisi

DERNIER METAR :
  • 181045Z 01005KT 7000 NSC 21/19 Q1019 NOSIG

METARs EXPIRÉS :
  • 181015Z 01006KT 7000 FEW020 20/18 Q1020 NOSIG
  • 180945Z 02006KT 7000 FEW020 20/18 Q1020 NOSIG
  • 180915Z 34004KT 5000 BR SCT015 20/18 Q1020 NOSIG
  • 180845Z 34004KT 4000 BR SCT015 19/17 Q1020 NOSIG
  • 180815Z 31005KT 3000 BR SCT015 19/17 Q1020 NOSIG

TAF TAF LIBR
Valide du 18 à 06h jusqu'au 19 à 06h UTC


180500Z 1806/1906 30007KT 0100 FG BKN003
BECMG 1806/1807 2000 BR SCT005
BECMG 1807/1808 5000 BR SCT010
BECMG 1808/1810 9999 FEW015
BECMG 1817/1818 5000 BR NSC
PROB30
TEMPO 1822/1903 1800 BR SCT005
Pas de NOTAMs connus pour ce terrain.



MET'MAP, la Météo Aéronautique d'un coup d'oeil ! - Copyright ORBIFLY Décembre 2007 - Disclaimer

ORBIFLY MET'MAP TEAM :

Programmation & Développement : Alexandra Zaïnal
Conception & Développement : Baudouin d'Aumeries
Co-Programmation & Développement : Marc-Olivier Méhu
Soutien technique & logistique : Manuel Goepfert

Contact : metmap@orbifly.com




SOURCES & CREDITS :

   NOAA